aviador You're here:

KIFA Decoded Metar

in _UNIDENTIFIED
Report Time2017-08-22 01:15:00
UTC Time2017-08-22 01:34:08
Flight Rules vfr VFR
Wind130° at 05 kt
W.Decomp.*RWY 13: 5.0 kt HW 0.1 kt LCW
W.Rank130° ranks 7
Current wind is below 130° avg. (7.7)
Visibility9999 m
Phenomena:N/A
Clouds:N/A
CeilingNone
Temp18°C (ISA +5)
Dew Point18°C (100% RH)
QNH1014 hPa
Density Alt2,001 ft
Elevation1,138 ft
Report Wrong Elevation
Raw Report
METAR KIFA 220115Z AUTO 13005KT 10SM CLR 18/18 A2993 RMK AO2 T01830179=

Extra information for KIFA:More info

Metar Taf Metar & Taf Last 4 Metars F.Rules Stats Wind Profile Meteogram Temp Stats Metar ALERT Operation Metar Decoded Social comments